createdAt,value
2018-03-15T00:02:28.738Z,8.50
2018-03-15T00:04:59.614Z,9.13
2018-03-15T00:07:30.451Z,9.67
2018-03-15T00:10:01.314Z,8.13
2018-03-15T00:12:32.144Z,8.80
2018-03-15T00:15:03.038Z,9.27
2018-03-15T00:17:33.916Z,8.40
2018-03-15T00:20:04.782Z,9.33
2018-03-15T00:22:35.648Z,8.87
2018-03-15T00:25:06.451Z,9.23
2018-03-15T00:27:37.268Z,10.17
2018-03-15T00:30:08.122Z,8.60
2018-03-15T00:32:39.043Z,9.33
2018-03-15T00:35:09.891Z,9.70
2018-03-15T00:37:40.824Z,8.93
2018-03-15T00:40:11.658Z,10.27
2018-03-15T00:42:42.499Z,10.17
2018-03-15T00:45:13.337Z,8.57
2018-03-15T00:47:44.157Z,9.33
2018-03-15T00:50:14.992Z,10.27
2018-03-15T00:52:45.839Z,11.33
2018-03-15T00:55:16.633Z,9.93
2018-03-15T00:57:47.503Z,8.97
2018-03-15T01:00:18.338Z,8.10
2018-03-15T01:02:49.242Z,8.37
2018-03-15T01:05:20.116Z,8.53
2018-03-15T01:07:50.942Z,8.10
2018-03-15T01:10:21.744Z,7.53
2018-03-15T01:12:52.546Z,8.70
2018-03-15T01:15:23.362Z,8.47
2018-03-15T01:17:54.203Z,9.17
2018-03-15T01:20:25.038Z,8.67
2018-03-15T01:22:55.928Z,9.07
2018-03-15T01:25:26.769Z,8.27
2018-03-15T01:27:57.644Z,9.00
2018-03-15T01:30:28.477Z,9.07
2018-03-15T01:32:59.282Z,8.93
2018-03-15T01:35:30.085Z,10.60
2018-03-15T01:38:00.958Z,9.50
2018-03-15T01:40:31.730Z,8.47
2018-03-15T01:43:02.613Z,9.33
2018-03-15T01:45:33.495Z,9.30
2018-03-15T01:48:04.432Z,8.97
2018-03-15T01:50:35.274Z,10.57
2018-03-15T01:53:06.182Z,8.83
2018-03-15T01:55:37.047Z,9.30
2018-03-15T01:58:07.891Z,8.90
2018-03-15T02:00:38.734Z,9.77
2018-03-15T02:03:09.580Z,8.60
2018-03-15T02:05:40.410Z,8.70
2018-03-15T02:08:11.235Z,8.80
2018-03-15T02:10:42.045Z,10.40
2018-03-15T02:13:12.892Z,10.47
2018-03-15T02:15:43.742Z,9.20
2018-03-15T02:18:14.572Z,8.63
2018-03-15T02:20:45.398Z,9.80
2018-03-15T02:23:16.291Z,8.90
2018-03-15T02:25:47.105Z,8.50
2018-03-15T02:28:18.010Z,7.57
2018-03-15T02:30:48.871Z,9.60
2018-03-15T02:33:19.710Z,8.60
2018-03-15T02:35:50.530Z,9.97
2018-03-15T02:38:21.394Z,10.27
2018-03-15T02:40:52.212Z,9.13
2018-03-15T02:43:23.046Z,10.40
2018-03-15T02:45:53.851Z,10.17
2018-03-15T02:48:24.662Z,9.13
2018-03-15T02:50:55.546Z,10.03
2018-03-15T02:53:26.359Z,10.33
2018-03-15T02:55:57.215Z,10.20
2018-03-15T02:58:28.086Z,11.10
2018-03-15T03:00:59.028Z,9.83
2018-03-15T03:03:29.853Z,10.27
2018-03-15T03:06:00.669Z,10.83
2018-03-15T03:08:31.511Z,8.97
2018-03-15T03:11:02.350Z,9.13
2018-03-15T03:13:33.191Z,9.77
2018-03-15T03:16:04.054Z,9.97
2018-03-15T03:18:34.945Z,10.47
2018-03-15T03:21:05.781Z,8.70
2018-03-15T03:23:36.638Z,9.97
2018-03-15T03:26:07.475Z,10.30
2018-03-15T03:28:38.299Z,9.40
2018-03-15T03:31:09.168Z,8.30
2018-03-15T03:33:40.018Z,9.87
2018-03-15T03:36:10.812Z,9.50
2018-03-15T03:38:41.652Z,9.30
2018-03-15T03:41:12.545Z,8.93
2018-03-15T03:43:43.390Z,10.40
2018-03-15T03:46:14.245Z,9.13
2018-03-15T03:48:45.105Z,9.03
2018-03-15T03:51:15.990Z,8.47
2018-03-15T03:53:46.848Z,9.40
2018-03-15T03:56:17.666Z,9.33
2018-03-15T03:58:48.545Z,8.83
2018-03-15T04:01:19.371Z,8.50
2018-03-15T04:03:50.230Z,8.03
2018-03-15T04:06:21.074Z,10.10
2018-03-15T04:08:51.940Z,10.30
2018-03-15T04:11:22.812Z,7.83
2018-03-15T04:13:53.618Z,8.93
2018-03-15T04:16:24.491Z,7.97
2018-03-15T04:18:55.386Z,8.57
2018-03-15T04:21:26.195Z,8.23
2018-03-15T04:23:57.078Z,8.53
2018-03-15T04:26:27.893Z,9.77
2018-03-15T04:28:58.773Z,9.43
2018-03-15T04:31:29.617Z,9.40
2018-03-15T04:34:00.520Z,10.47
2018-03-15T04:36:31.381Z,10.80
2018-03-15T04:39:02.297Z,10.07
2018-03-15T04:41:33.123Z,10.17
2018-03-15T04:44:03.970Z,8.77
2018-03-15T04:46:34.767Z,10.30
2018-03-15T04:49:05.598Z,10.13
2018-03-15T04:51:36.434Z,8.30
2018-03-15T04:54:07.274Z,8.83
2018-03-15T04:56:38.144Z,9.27
2018-03-15T04:59:09.013Z,8.17
2018-03-15T05:01:39.862Z,9.10
2018-03-15T05:04:10.698Z,9.00
2018-03-15T05:06:41.522Z,9.40
2018-03-15T05:09:12.322Z,9.57
2018-03-15T05:11:43.154Z,8.47
2018-03-15T05:14:13.997Z,8.40
2018-03-15T05:16:44.851Z,7.50
2018-03-15T05:19:15.671Z,9.10
2018-03-15T05:21:46.458Z,8.47
2018-03-15T05:24:17.284Z,8.50
2018-03-15T05:26:48.172Z,7.00
2018-03-15T05:29:19.052Z,7.77
2018-03-15T05:31:49.893Z,8.53
2018-03-15T05:34:20.726Z,8.70
2018-03-15T05:36:51.578Z,8.20
2018-03-15T05:39:22.409Z,8.07
2018-03-15T05:41:53.334Z,7.87
2018-03-15T05:44:24.172Z,8.37
2018-03-15T05:46:55.009Z,8.53
2018-03-15T05:49:25.907Z,7.30
2018-03-15T05:51:56.784Z,8.70
2018-03-15T05:54:27.590Z,8.90
2018-03-15T05:56:58.408Z,9.40
2018-03-15T05:59:29.278Z,9.40
2018-03-15T06:02:00.125Z,7.90
2018-03-15T06:04:30.961Z,8.33
2018-03-15T06:07:01.786Z,9.20
2018-03-15T06:09:32.616Z,10.00
2018-03-15T06:12:03.500Z,10.80
2018-03-15T06:14:34.362Z,9.73
2018-03-15T06:17:05.194Z,9.93
2018-03-15T06:19:36.072Z,9.23
2018-03-15T06:22:06.880Z,9.13
2018-03-15T06:24:37.754Z,9.30
2018-03-15T06:27:08.540Z,9.57
2018-03-15T06:29:39.348Z,9.00
2018-03-15T06:32:10.210Z,9.97
2018-03-15T06:34:41.057Z,10.40
2018-03-15T06:37:11.934Z,10.10
2018-03-15T06:39:42.778Z,9.30
2018-03-15T06:42:13.613Z,9.43
2018-03-15T06:44:44.457Z,9.10
2018-03-15T06:47:15.593Z,10.00
2018-03-15T06:49:46.434Z,9.32
2018-03-15T06:52:17.256Z,9.00
2018-03-15T06:54:48.088Z,10.33
2018-03-15T06:57:18.943Z,11.33
2018-03-15T06:59:49.789Z,9.47
2018-03-15T07:02:20.613Z,9.80
2018-03-15T07:04:51.454Z,10.40
2018-03-15T07:07:29.762Z,10.63
2018-03-15T07:10:05.082Z,10.88
2018-03-15T07:12:35.898Z,10.70
2018-03-15T07:15:06.781Z,11.37
2018-03-15T07:17:37.726Z,11.60
2018-03-15T07:20:08.556Z,10.27
2018-03-15T07:22:39.387Z,11.00
2018-03-15T07:25:10.198Z,10.07
2018-03-15T07:27:40.995Z,10.63
2018-03-15T07:30:11.839Z,9.50
2018-03-15T07:32:42.691Z,9.60
2018-03-15T07:35:13.578Z,8.83
2018-03-15T07:37:44.426Z,8.10
2018-03-15T07:40:15.283Z,7.10
2018-03-15T07:42:46.120Z,7.00
2018-03-15T07:45:17.002Z,7.30
2018-03-15T07:47:47.870Z,6.70
2018-03-15T07:50:18.774Z,6.83
2018-03-15T07:52:49.597Z,6.87
2018-03-15T07:55:20.546Z,6.33
2018-03-15T07:57:51.386Z,5.50
2018-03-15T08:00:22.254Z,6.20
2018-03-15T08:02:53.038Z,5.93
2018-03-15T08:05:23.912Z,5.30
2018-03-15T08:07:54.749Z,6.80
2018-03-15T08:10:25.598Z,5.83
2018-03-15T08:12:56.429Z,8.77
2018-03-15T08:15:27.241Z,6.80
2018-03-15T08:17:58.152Z,6.00
2018-03-15T08:20:30.094Z,6.90
2018-03-15T08:23:00.929Z,6.78
2018-03-15T08:25:31.771Z,6.33
2018-03-15T08:28:02.737Z,5.77
2018-03-15T08:30:33.754Z,6.67
2018-03-15T08:33:04.569Z,5.00
2018-03-15T08:35:35.557Z,5.10
2018-03-15T08:38:06.441Z,6.20
2018-03-15T08:40:37.420Z,5.50
2018-03-15T08:43:08.220Z,3.93
2018-03-15T08:45:39.150Z,5.10
2018-03-15T08:48:12.024Z,4.87
2018-03-15T08:50:42.916Z,4.78
2018-03-15T08:53:13.812Z,4.70
2018-03-15T08:55:44.683Z,5.47
2018-03-15T08:58:15.612Z,4.77
2018-03-15T09:00:46.456Z,5.27
2018-03-15T09:03:17.249Z,5.70
2018-03-15T09:05:48.096Z,5.50
2018-03-15T09:08:18.948Z,4.93
2018-03-15T09:10:49.789Z,5.20
2018-03-15T09:13:20.627Z,4.67
2018-03-15T09:15:51.433Z,4.53
2018-03-15T09:18:22.287Z,5.00
2018-03-15T09:20:53.125Z,5.00
2018-03-15T09:23:23.970Z,5.53
2018-03-15T09:25:55.868Z,5.20
2018-03-15T09:28:26.705Z,5.05
2018-03-15T09:30:57.608Z,4.27
2018-03-15T09:33:28.483Z,4.97
2018-03-15T09:35:59.474Z,5.00
2018-03-15T09:38:30.364Z,5.07
2018-03-15T09:41:01.230Z,5.10
2018-03-15T09:43:32.044Z,4.30
2018-03-15T09:46:02.960Z,5.23
2018-03-15T09:48:33.717Z,5.23
2018-03-15T09:51:04.594Z,5.10
2018-03-15T09:53:35.516Z,5.10
2018-03-15T09:56:06.354Z,5.03
2018-03-15T09:58:37.158Z,5.00
2018-03-15T10:01:08.013Z,5.57
2018-03-15T10:03:38.933Z,5.60
2018-03-15T10:06:09.816Z,5.13
2018-03-15T10:08:40.646Z,5.00
2018-03-15T10:11:11.561Z,5.10
2018-03-15T10:13:42.522Z,5.80
2018-03-15T10:16:13.369Z,5.30
2018-03-15T10:18:44.183Z,5.73
2018-03-15T10:21:15.053Z,5.30
2018-03-15T10:23:45.876Z,4.47
2018-03-15T10:26:16.755Z,5.27
2018-03-15T10:28:47.595Z,6.07
2018-03-15T10:31:18.477Z,5.87
2018-03-15T10:33:49.289Z,5.73
2018-03-15T10:36:20.126Z,5.63
2018-03-15T10:38:51.007Z,5.50
2018-03-15T10:41:21.857Z,5.90
2018-03-15T10:43:52.669Z,5.87
2018-03-15T10:46:23.561Z,5.20
2018-03-15T10:48:54.634Z,5.67
2018-03-15T10:51:25.588Z,5.00
2018-03-15T10:53:56.463Z,5.80
2018-03-15T10:56:27.343Z,6.60
2018-03-15T10:58:58.299Z,5.00
2018-03-15T11:01:35.266Z,5.10
2018-03-15T11:04:10.170Z,6.07
2018-03-15T11:06:41.071Z,4.90
2018-03-15T11:09:13.941Z,5.43
2018-03-15T11:11:44.722Z,5.37
2018-03-15T11:14:15.555Z,5.63
2018-03-15T11:16:46.403Z,5.40
2018-03-15T11:19:17.240Z,5.53
2018-03-15T11:21:48.077Z,5.50
2018-03-15T11:24:18.887Z,5.07
2018-03-15T11:26:49.686Z,4.83
2018-03-15T11:29:20.524Z,5.60
2018-03-15T11:31:51.378Z,4.97
2018-03-15T11:34:22.233Z,5.00
2018-03-15T11:36:53.075Z,5.80
2018-03-15T11:39:23.919Z,5.30
2018-03-15T11:41:54.765Z,5.10
2018-03-15T11:44:25.640Z,4.70
2018-03-15T11:46:56.495Z,4.83
2018-03-15T11:49:27.376Z,4.97
2018-03-15T11:51:58.229Z,5.00
2018-03-15T11:54:29.091Z,5.70
2018-03-15T11:56:59.925Z,5.30
2018-03-15T11:59:30.814Z,4.87
2018-03-15T12:02:01.717Z,4.67
2018-03-15T12:04:32.560Z,4.90
2018-03-15T12:07:03.422Z,5.13
2018-03-15T12:09:34.258Z,5.13
2018-03-15T12:12:05.159Z,4.80
2018-03-15T12:14:36.034Z,4.87
2018-03-15T12:17:06.964Z,5.80
2018-03-15T12:19:38.068Z,4.53
2018-03-15T12:22:08.936Z,4.60
2018-03-15T12:24:39.803Z,4.43
2018-03-15T12:27:10.681Z,4.13
2018-03-15T12:29:41.590Z,3.50
2018-03-15T12:32:12.475Z,3.87
2018-03-15T12:34:43.303Z,3.90
2018-03-15T12:37:14.167Z,3.83
2018-03-15T12:39:45.031Z,3.10
2018-03-15T12:42:15.862Z,3.60
2018-03-15T12:44:47.184Z,4.10
2018-03-15T12:47:18.047Z,3.23
2018-03-15T12:49:48.899Z,3.60
2018-03-15T12:52:19.759Z,4.30
2018-03-15T12:54:50.581Z,4.17
2018-03-15T12:57:21.439Z,3.63
2018-03-15T12:59:52.200Z,3.80
2018-03-15T13:02:23.068Z,3.97
2018-03-15T13:04:53.879Z,3.97
2018-03-15T13:07:24.691Z,3.80
2018-03-15T13:09:55.542Z,3.67
2018-03-15T13:12:26.403Z,3.60
2018-03-15T13:14:57.236Z,4.00
2018-03-15T13:17:28.036Z,3.70
2018-03-15T13:19:58.850Z,4.30
2018-03-15T13:22:29.737Z,4.00
2018-03-15T13:25:00.602Z,4.07
2018-03-15T13:27:31.466Z,4.13
2018-03-15T13:30:02.339Z,3.90
2018-03-15T13:32:33.211Z,3.90
2018-03-15T13:35:04.041Z,3.43
2018-03-15T13:37:34.874Z,3.23
2018-03-15T13:40:05.697Z,3.30
2018-03-15T13:42:36.621Z,3.20
2018-03-15T13:45:07.454Z,3.37
2018-03-15T13:47:38.338Z,3.37
2018-03-15T13:50:09.249Z,3.83
2018-03-15T13:52:40.138Z,3.90
2018-03-15T13:55:11.002Z,5.20
2018-03-15T13:57:41.952Z,5.03
2018-03-15T14:00:12.890Z,4.30
2018-03-15T14:02:43.789Z,5.10
2018-03-15T14:05:14.660Z,5.63
2018-03-15T14:07:45.524Z,5.33
2018-03-15T14:10:16.410Z,5.73
2018-03-15T14:12:47.408Z,4.87
2018-03-15T14:15:18.286Z,6.33
2018-03-15T14:17:50.171Z,6.33
2018-03-15T14:20:21.043Z,5.10
2018-03-15T14:22:51.906Z,5.33
2018-03-15T14:25:22.784Z,5.20
2018-03-15T14:27:54.607Z,5.30
2018-03-15T14:30:25.410Z,5.90
2018-03-15T14:32:56.253Z,6.13
2018-03-15T14:35:27.066Z,5.03
2018-03-15T14:37:57.889Z,5.40
2018-03-15T14:40:28.723Z,5.50
2018-03-15T14:42:59.543Z,5.83
2018-03-15T14:45:30.354Z,5.40
2018-03-15T14:48:01.227Z,4.83
2018-03-15T14:50:32.046Z,5.47
2018-03-15T14:53:02.868Z,5.27
2018-03-15T14:55:33.705Z,6.37
2018-03-15T14:58:04.577Z,5.10
2018-03-15T15:00:35.414Z,5.37
2018-03-15T15:03:06.221Z,5.27
2018-03-15T15:05:44.298Z,5.63
2018-03-15T15:08:15.148Z,5.53
2018-03-15T15:10:49.624Z,4.77
2018-03-15T15:13:20.444Z,5.40
2018-03-15T15:15:51.305Z,5.67
2018-03-15T15:18:22.169Z,5.03
2018-03-15T15:20:53.074Z,4.77
2018-03-15T15:23:23.981Z,5.80
2018-03-15T15:25:55.888Z,5.10
2018-03-15T15:28:26.737Z,4.97
2018-03-15T15:30:57.558Z,5.30
2018-03-15T15:33:28.426Z,4.97
2018-03-15T15:35:59.288Z,4.83
2018-03-15T15:38:30.255Z,5.80
2018-03-15T15:41:01.091Z,5.40
2018-03-15T15:43:31.934Z,5.50
2018-03-15T15:46:02.777Z,5.03
2018-03-15T15:48:33.610Z,4.97
2018-03-15T15:51:04.413Z,5.17
2018-03-15T15:53:35.341Z,5.03
2018-03-15T15:56:06.302Z,5.57
2018-03-15T15:58:37.137Z,5.03
2018-03-15T16:01:07.958Z,5.40
2018-03-15T16:03:38.766Z,4.80
2018-03-15T16:06:09.604Z,5.10
2018-03-15T16:08:40.451Z,5.50
2018-03-15T16:11:11.289Z,5.30
2018-03-15T16:13:43.176Z,5.10
2018-03-15T16:16:14.028Z,5.45
2018-03-15T16:18:44.915Z,6.27
2018-03-15T16:21:15.755Z,5.50
2018-03-15T16:23:46.622Z,5.47
2018-03-15T16:26:17.530Z,5.47
2018-03-15T16:28:48.372Z,5.07
2018-03-15T16:31:19.247Z,5.80
2018-03-15T16:33:50.098Z,5.60
2018-03-15T16:36:20.985Z,6.27
2018-03-15T16:38:51.777Z,6.10
2018-03-15T16:41:22.666Z,5.83
2018-03-15T16:43:53.506Z,6.07
2018-03-15T16:46:24.337Z,6.20
2018-03-15T16:48:55.298Z,6.37
2018-03-15T16:51:26.138Z,7.20
2018-03-15T16:53:57.073Z,6.93
2018-03-15T16:56:27.928Z,7.10
2018-03-15T16:58:58.817Z,7.30
2018-03-15T17:01:29.681Z,6.17
2018-03-15T17:04:01.572Z,7.10
2018-03-15T17:06:32.410Z,6.97
2018-03-15T17:09:03.289Z,6.53
2018-03-15T17:11:34.134Z,6.50
2018-03-15T17:14:06.010Z,6.50
2018-03-15T17:16:36.981Z,6.87
2018-03-15T17:19:07.817Z,6.67
2018-03-15T17:21:38.630Z,6.87
2018-03-15T17:24:09.569Z,7.83
2018-03-15T17:26:40.401Z,6.53
2018-03-15T17:29:11.311Z,6.70
2018-03-15T17:31:42.109Z,7.17
2018-03-15T17:34:13.051Z,6.93
2018-03-15T17:36:43.932Z,6.20
2018-03-15T17:39:14.844Z,6.87
2018-03-15T17:41:45.693Z,7.30
2018-03-15T17:44:16.564Z,7.70
2018-03-15T17:46:47.377Z,7.13
2018-03-15T17:49:18.268Z,7.37
2018-03-15T17:51:49.206Z,7.93
2018-03-15T17:54:20.081Z,7.70
2018-03-15T17:56:50.914Z,7.70
2018-03-15T17:59:21.758Z,8.97
2018-03-15T18:01:52.712Z,7.40
2018-03-15T18:04:23.590Z,7.27
2018-03-15T18:06:54.456Z,6.80
2018-03-15T18:09:25.335Z,8.10
2018-03-15T18:11:56.338Z,8.57
2018-03-15T18:14:27.191Z,8.35
2018-03-15T18:16:58.037Z,7.90
2018-03-15T18:19:28.895Z,9.43
2018-03-15T18:21:59.731Z,9.53
2018-03-15T18:24:30.659Z,9.40
2018-03-15T18:27:01.507Z,8.70
2018-03-15T18:29:32.346Z,9.03
2018-03-15T18:32:03.218Z,9.93
2018-03-15T18:34:34.036Z,8.23
2018-03-15T18:37:06.275Z,8.20
2018-03-15T18:39:37.145Z,8.25
2018-03-15T18:42:07.962Z,8.77
2018-03-15T18:44:38.762Z,9.50
2018-03-15T18:47:09.611Z,8.83
2018-03-15T18:49:40.477Z,8.87
2018-03-15T18:52:11.298Z,8.87
2018-03-15T18:54:42.165Z,9.53
2018-03-15T18:57:13.007Z,8.30
2018-03-15T18:59:43.892Z,8.80
2018-03-15T19:02:14.693Z,9.50
2018-03-15T19:04:45.530Z,8.63
2018-03-15T19:07:16.386Z,9.87
2018-03-15T19:09:47.251Z,10.40
2018-03-15T19:12:19.476Z,9.70
2018-03-15T19:14:50.333Z,9.73
2018-03-15T19:17:21.168Z,10.23
2018-03-15T19:19:52.018Z,9.97
2018-03-15T19:22:22.878Z,9.40
2018-03-15T19:24:53.770Z,10.93
2018-03-15T19:27:24.626Z,10.67
2018-03-15T19:29:55.460Z,9.97
2018-03-15T19:32:27.738Z,9.90
2018-03-15T19:34:59.488Z,10.85
2018-03-15T19:37:30.324Z,10.40
2018-03-15T19:40:01.760Z,11.70
2018-03-15T19:42:32.600Z,11.12
2018-03-15T19:45:03.456Z,10.67
2018-03-15T19:47:34.376Z,10.63
2018-03-15T19:50:05.233Z,9.90
2018-03-15T19:52:36.086Z,10.20
2018-03-15T19:55:07.991Z,10.70
2018-03-15T19:57:38.865Z,10.95
2018-03-15T20:00:09.701Z,12.20
2018-03-15T20:02:40.542Z,10.53
2018-03-15T20:05:11.535Z,11.90
2018-03-15T20:07:42.337Z,10.85
2018-03-15T20:10:13.217Z,11.27
2018-03-15T20:12:44.054Z,10.70
2018-03-15T20:15:14.922Z,10.93
2018-03-15T20:17:45.761Z,11.63
2018-03-15T20:20:16.599Z,10.10
2018-03-15T20:22:53.409Z,10.67
2018-03-15T20:25:24.313Z,10.50
2018-03-15T20:28:03.354Z,10.93
2018-03-15T20:30:34.278Z,10.68
2018-03-15T20:36:12.913Z,10.77
2018-03-15T20:38:45.822Z,10.27
2018-03-15T20:41:22.789Z,11.43
2018-03-15T20:43:54.799Z,9.38
2018-03-15T20:49:32.040Z,11.60
2018-03-15T20:52:02.977Z,12.82
2018-03-15T20:54:33.947Z,12.50
2018-03-15T20:57:04.923Z,10.88
2018-03-15T20:59:35.805Z,11.30
2018-03-15T21:02:08.688Z,10.30
2018-03-15T21:04:39.731Z,11.90
2018-03-15T21:07:10.566Z,10.48
2018-03-15T21:09:41.402Z,10.60
2018-03-15T21:12:12.343Z,10.77
2018-03-15T21:14:43.183Z,10.63
2018-03-15T21:17:14.691Z,10.50
2018-03-15T21:19:45.570Z,11.35
2018-03-15T21:22:16.402Z,13.20
2018-03-15T21:24:47.250Z,11.23
2018-03-15T21:27:18.097Z,12.93
2018-03-15T21:29:48.938Z,12.37
2018-03-15T21:32:19.776Z,10.80
2018-03-15T21:34:50.618Z,11.50
2018-03-15T21:37:21.537Z,10.83
2018-03-15T21:39:54.519Z,10.90
2018-03-15T21:42:25.455Z,11.30
2018-03-15T21:44:56.400Z,11.20
2018-03-15T21:47:28.377Z,10.90
2018-03-15T21:49:59.210Z,11.20
2018-03-15T21:52:30.056Z,11.97
2018-03-15T21:55:00.883Z,11.50
2018-03-15T21:57:31.726Z,11.77
2018-03-15T22:00:03.730Z,10.77
2018-03-15T22:02:34.615Z,12.10
2018-03-15T22:05:05.659Z,10.93
2018-03-15T22:07:36.608Z,11.48
2018-03-15T22:10:07.631Z,11.47
2018-03-15T22:12:38.535Z,12.00
2018-03-15T22:15:09.452Z,10.70
2018-03-15T22:17:40.346Z,10.13
2018-03-15T22:20:12.255Z,11.93
2018-03-15T22:22:43.318Z,11.68
2018-03-15T22:25:14.201Z,10.88
2018-03-15T22:27:45.155Z,12.20
2018-03-15T22:30:16.076Z,10.47
2018-03-15T22:32:47.009Z,12.20
2018-03-15T22:35:21.199Z,11.07
2018-03-15T22:37:52.843Z,10.30
2018-03-15T22:40:23.765Z,11.63
2018-03-15T22:42:55.706Z,10.90
2018-03-15T22:45:27.661Z,9.82
2018-03-15T22:47:58.811Z,11.05
2018-03-15T22:50:29.668Z,10.30
2018-03-15T22:55:40.294Z,10.75
2018-03-15T22:58:11.399Z,11.37
2018-03-15T23:00:42.291Z,10.30
2018-03-15T23:03:13.210Z,10.07
2018-03-15T23:05:44.090Z,11.20
2018-03-15T23:08:15.008Z,10.70
2018-03-15T23:10:45.933Z,10.10
2018-03-15T23:13:16.788Z,10.10
2018-03-15T23:15:47.917Z,10.50
2018-03-15T23:18:18.869Z,10.10
2018-03-15T23:20:49.718Z,9.80
2018-03-15T23:23:20.634Z,10.13
2018-03-15T23:25:51.518Z,10.00
2018-03-15T23:28:22.444Z,11.17
2018-03-15T23:30:53.469Z,9.13
2018-03-15T23:33:24.677Z,10.10
2018-03-15T23:35:55.542Z,11.15
2018-03-15T23:38:26.454Z,9.67
2018-03-15T23:40:57.326Z,9.97
2018-03-15T23:43:28.228Z,9.50
2018-03-15T23:45:59.126Z,10.33
2018-03-15T23:48:30.025Z,10.37
2018-03-15T23:51:00.940Z,10.13
2018-03-15T23:53:31.850Z,9.93
2018-03-15T23:56:02.780Z,9.67
2018-03-15T23:58:33.694Z,9.63
